createdAt,value
2018-10-17T00:01:51.977Z,17.20
2018-10-17T00:04:21.342Z,34.10
2018-10-17T00:06:52.778Z,18.50
2018-10-17T00:09:21.987Z,17.60
2018-10-17T00:11:52.816Z,17.13
2018-10-17T00:14:23.634Z,18.63
2018-10-17T00:16:53.138Z,18.37
2018-10-17T00:19:22.326Z,21.07
2018-10-17T00:21:51.889Z,23.87
2018-10-17T00:24:21.370Z,46.03
2018-10-17T00:26:50.635Z,20.60
2018-10-17T00:29:19.698Z,19.43
2018-10-17T00:31:48.739Z,20.10
2018-10-17T00:34:18.998Z,19.70
2018-10-17T00:36:48.111Z,21.30
2018-10-17T00:39:17.437Z,19.57
2018-10-17T00:41:46.625Z,17.80
2018-10-17T00:44:15.925Z,21.23
2018-10-17T00:46:44.977Z,17.80
2018-10-17T00:49:14.416Z,18.23
2018-10-17T00:51:43.454Z,16.90
2018-10-17T00:54:12.513Z,33.03
2018-10-17T00:56:41.581Z,21.30
2018-10-17T00:59:12.120Z,20.33
2018-10-17T01:01:41.736Z,18.20
2018-10-17T01:04:11.574Z,18.87
2018-10-17T01:06:41.196Z,18.23
2018-10-17T01:09:13.925Z,20.70
2018-10-17T01:11:43.339Z,18.23
2018-10-17T01:14:12.939Z,18.30
2018-10-17T01:16:42.336Z,19.13
2018-10-17T01:19:12.482Z,18.57
2018-10-17T01:21:41.971Z,17.13
2018-10-17T01:24:13.183Z,17.90
2018-10-17T01:26:42.428Z,16.27
2018-10-17T01:29:12.845Z,16.40
2018-10-17T01:31:41.884Z,19.73
2018-10-17T01:34:11.353Z,19.00
2018-10-17T01:36:40.930Z,20.73
2018-10-17T01:39:11.272Z,20.17
2018-10-17T01:41:40.618Z,20.70
2018-10-17T01:44:10.202Z,17.93
2018-10-17T01:46:40.678Z,18.40
2018-10-17T01:49:10.422Z,18.30
2018-10-17T01:51:41.519Z,18.37
2018-10-17T01:54:11.902Z,16.63
2018-10-17T01:56:41.071Z,18.63
2018-10-17T01:59:15.724Z,18.00
2018-10-17T02:01:45.311Z,20.67
2018-10-17T02:04:17.173Z,19.33
2018-10-17T02:06:46.234Z,18.50
2018-10-17T02:09:20.985Z,17.33
2018-10-17T02:11:50.892Z,19.40
2018-10-17T02:14:19.949Z,17.53
2018-10-17T02:17:24.825Z,18.50
2018-10-17T02:19:53.697Z,18.70
2018-10-17T02:22:34.034Z,17.53
2018-10-17T02:25:29.057Z,18.50
2018-10-17T02:27:58.033Z,17.40
2018-10-17T02:30:27.138Z,18.00
2018-10-17T02:32:56.207Z,15.97
2018-10-17T02:35:25.291Z,17.17
2018-10-17T02:39:23.593Z,16.53
2018-10-17T02:41:52.627Z,17.90
2018-10-17T02:44:22.261Z,15.67
2018-10-17T02:46:51.220Z,16.67
2018-10-17T02:49:20.163Z,17.03
2018-10-17T02:51:49.771Z,18.23
2018-10-17T02:54:18.986Z,17.50
2018-10-17T02:56:47.995Z,17.03
2018-10-17T02:59:18.224Z,18.10
2018-10-17T03:01:47.119Z,18.97
2018-10-17T03:04:16.105Z,17.40
2018-10-17T03:06:45.105Z,17.10
2018-10-17T03:09:15.485Z,16.03
2018-10-17T03:11:44.857Z,18.43
2018-10-17T03:14:13.977Z,17.10
2018-10-17T03:16:43.668Z,16.97
2018-10-17T03:19:12.712Z,17.10
2018-10-17T03:21:41.599Z,17.97
2018-10-17T03:24:10.617Z,19.27
2018-10-17T03:26:40.089Z,17.60
2018-10-17T03:29:09.252Z,18.87
2018-10-17T03:31:38.397Z,20.77
2018-10-17T03:34:08.457Z,18.20
2018-10-17T03:36:38.306Z,17.70
2018-10-17T03:39:11.821Z,18.93
2018-10-17T03:41:40.815Z,16.93
2018-10-17T03:44:11.125Z,18.47
2018-10-17T03:46:40.505Z,16.53
2018-10-17T03:49:09.473Z,17.50
2018-10-17T03:51:41.290Z,16.77
2018-10-17T03:54:10.729Z,17.10
2018-10-17T03:56:39.838Z,17.70
2018-10-17T03:59:09.367Z,19.43
2018-10-17T04:01:38.645Z,16.17
2018-10-17T04:04:07.987Z,19.70
2018-10-17T04:06:39.647Z,17.87
2018-10-17T04:09:12.812Z,18.17
2018-10-17T04:11:41.890Z,17.30
2018-10-17T04:14:10.836Z,16.97
2018-10-17T04:16:40.173Z,19.67
2018-10-17T04:19:09.964Z,19.87
2018-10-17T04:21:38.906Z,18.63
2018-10-17T04:24:12.543Z,17.73
2018-10-17T04:26:42.942Z,19.70
2018-10-17T04:29:12.147Z,18.07
2018-10-17T04:31:41.175Z,17.10
2018-10-17T04:34:10.600Z,18.47
2018-10-17T04:36:39.567Z,18.13
2018-10-17T04:39:10.217Z,17.07
2018-10-17T04:41:39.802Z,18.87
2018-10-17T04:44:09.806Z,17.10
2018-10-17T04:46:38.936Z,18.73
2018-10-17T04:49:10.585Z,19.13
2018-10-17T04:51:39.634Z,17.43
2018-10-17T04:54:08.603Z,18.27
2018-10-17T04:56:37.520Z,17.53
2018-10-17T04:59:06.763Z,19.50
2018-10-17T05:01:36.579Z,18.20
2018-10-17T05:04:06.582Z,25.10
2018-10-17T05:06:35.636Z,18.93
2018-10-17T05:09:08.302Z,22.10
2018-10-17T05:11:37.398Z,18.37
2018-10-17T05:14:07.317Z,19.57
2018-10-17T05:16:36.700Z,21.63
2018-10-17T05:19:06.840Z,19.30
2018-10-17T05:21:36.269Z,18.50
2018-10-17T05:24:05.423Z,19.17
2018-10-17T05:26:34.823Z,20.80
2018-10-17T05:29:04.636Z,20.13
2018-10-17T05:31:34.265Z,17.90
2018-10-17T05:34:03.249Z,18.33
2018-10-17T05:36:32.521Z,19.17
2018-10-17T05:39:03.580Z,20.93
2018-10-17T05:41:32.791Z,18.60
2018-10-17T05:44:02.873Z,22.97
2018-10-17T05:46:32.210Z,21.93
2018-10-17T05:49:01.765Z,18.83
2018-10-17T05:51:32.297Z,18.77
2018-10-17T05:54:01.568Z,16.50
2018-10-17T05:56:31.062Z,18.60
2018-10-17T05:59:03.460Z,16.87
2018-10-17T06:01:32.831Z,17.57
2018-10-17T06:04:01.845Z,18.77
2018-10-17T06:06:31.162Z,18.30
2018-10-17T06:09:01.443Z,18.10
2018-10-17T06:11:32.826Z,17.20
2018-10-17T06:14:02.020Z,18.30
2018-10-17T06:16:31.328Z,17.63
2018-10-17T06:19:00.366Z,15.63
2018-10-17T06:21:33.606Z,16.73
2018-10-17T06:24:02.666Z,17.30
2018-10-17T06:26:31.874Z,17.60
2018-10-17T06:29:02.533Z,18.90
2018-10-17T06:31:31.695Z,19.53
2018-10-17T06:34:03.835Z,19.87
2018-10-17T06:36:33.187Z,18.50
2018-10-17T06:39:06.981Z,19.37
2018-10-17T06:41:36.623Z,16.60
2018-10-17T06:44:07.640Z,19.93
2018-10-17T06:46:38.496Z,17.73
2018-10-17T06:49:08.959Z,17.80
2018-10-17T06:51:42.860Z,16.63
2018-10-17T06:54:12.170Z,16.30
2018-10-17T06:56:43.227Z,16.30
2018-10-17T06:59:13.226Z,23.57
2018-10-17T07:01:50.471Z,18.77
2018-10-17T07:04:27.395Z,18.47
2018-10-17T07:07:00.165Z,16.53
2018-10-17T07:09:31.758Z,18.53
2018-10-17T07:12:01.199Z,17.90
2018-10-17T07:14:44.647Z,18.70
2018-10-17T07:17:14.368Z,19.23
2018-10-17T07:19:46.521Z,18.17
2018-10-17T07:22:19.184Z,17.67
2018-10-17T07:24:54.816Z,27.40
2018-10-17T07:27:25.321Z,18.50
2018-10-17T07:29:58.340Z,19.30
2018-10-17T07:32:32.898Z,17.90
2018-10-17T07:35:17.163Z,17.90
2018-10-17T07:38:12.164Z,19.60
2018-10-17T07:41:01.245Z,19.13
2018-10-17T07:43:33.769Z,17.30
2018-10-17T07:46:03.308Z,20.03
2018-10-17T07:48:32.525Z,19.17
2018-10-17T07:51:01.732Z,22.13
2018-10-17T07:53:32.205Z,20.57
2018-10-17T07:56:01.637Z,20.90
2018-10-17T07:58:31.153Z,18.57
2018-10-17T08:01:02.208Z,19.37
2018-10-17T08:03:31.707Z,18.37
2018-10-17T08:06:00.981Z,18.57
2018-10-17T08:08:30.291Z,20.50
2018-10-17T08:11:02.352Z,18.03
2018-10-17T08:13:33.588Z,18.73
2018-10-17T08:16:04.272Z,17.80
2018-10-17T08:18:35.188Z,20.07
2018-10-17T08:21:07.658Z,17.80
2018-10-17T08:23:37.773Z,24.40
2018-10-17T08:26:09.143Z,25.03
2018-10-17T08:28:48.683Z,19.47
2018-10-17T08:31:18.705Z,19.60
2018-10-17T08:33:48.463Z,18.60
2018-10-17T08:36:18.986Z,20.40
2018-10-17T08:43:33.237Z,18.43
2018-10-17T08:46:02.478Z,21.70
2018-10-17T08:48:32.528Z,18.70
2018-10-17T08:51:01.656Z,21.50
2018-10-17T08:53:30.739Z,19.30
2018-10-17T08:56:00.111Z,19.30
2018-10-17T08:58:29.331Z,18.90
2018-10-17T09:00:58.731Z,18.80
2018-10-17T09:03:28.305Z,18.60
2018-10-17T09:05:57.750Z,20.27
2018-10-17T09:08:31.574Z,19.73
2018-10-17T09:11:01.318Z,20.30
2018-10-17T09:13:30.472Z,21.33
2018-10-17T09:15:59.585Z,19.40
2018-10-17T09:18:29.131Z,18.03
2018-10-17T09:21:00.844Z,23.00
2018-10-17T09:23:30.973Z,21.40
2018-10-17T09:26:00.286Z,21.97
2018-10-17T09:28:30.128Z,20.63
2018-10-17T09:31:00.529Z,23.43
2018-10-17T09:33:30.243Z,21.20
2018-10-17T09:36:00.055Z,19.87
2018-10-17T09:38:45.371Z,20.00
2018-10-17T09:41:26.899Z,20.30
2018-10-17T09:43:58.156Z,21.20
2018-10-17T09:46:28.434Z,21.57
2018-10-17T09:49:03.363Z,22.07
2018-10-17T09:51:38.539Z,22.00
2018-10-17T09:54:22.193Z,22.23
2018-10-17T09:56:53.800Z,23.93
2018-10-17T09:59:24.473Z,20.43
2018-10-17T10:01:56.967Z,22.90
2018-10-17T10:04:27.259Z,22.93
2018-10-17T10:06:58.672Z,21.30
2018-10-17T10:09:28.425Z,23.10
2018-10-17T10:11:59.352Z,21.13
2018-10-17T10:14:31.092Z,21.73
2018-10-17T10:17:08.866Z,19.83
2018-10-17T10:19:40.497Z,18.60
2018-10-17T10:22:11.668Z,18.63
2018-10-17T10:24:41.300Z,17.20
2018-10-17T10:27:13.554Z,18.20
2018-10-17T10:29:45.696Z,18.53
2018-10-17T10:32:19.217Z,25.40
2018-10-17T10:35:00.135Z,17.07
2018-10-17T10:37:37.413Z,18.27
2018-10-17T10:40:08.277Z,18.03
2018-10-17T10:42:38.926Z,16.57
2018-10-17T10:45:16.276Z,19.57
2018-10-17T10:47:51.737Z,23.70
2018-10-17T10:50:27.780Z,16.77
2018-10-17T10:52:59.515Z,18.83
2018-10-17T10:55:30.103Z,17.20
2018-10-17T10:58:00.183Z,21.00
2018-10-17T11:00:35.457Z,17.90
2018-10-17T11:03:04.839Z,19.37
2018-10-17T11:05:41.616Z,20.03
2018-10-17T11:08:11.495Z,16.33
2018-10-17T11:10:42.726Z,18.00
2018-10-17T11:13:16.569Z,17.33
2018-10-17T11:15:48.110Z,15.70
2018-10-17T11:18:18.387Z,16.93
2018-10-17T11:20:51.357Z,14.77
2018-10-17T11:23:22.983Z,18.10
2018-10-17T11:25:53.065Z,24.13
2018-10-17T11:28:27.672Z,17.83
2018-10-17T11:30:57.348Z,19.70
2018-10-17T11:33:32.957Z,19.10
2018-10-17T11:36:05.976Z,14.90
2018-10-17T11:38:36.289Z,15.53
2018-10-17T11:41:07.348Z,16.40
2018-10-17T11:43:38.162Z,16.47
2018-10-17T11:46:10.246Z,15.70
2018-10-17T11:48:40.931Z,14.00
2018-10-17T11:51:10.419Z,15.20
2018-10-17T11:53:41.795Z,13.40
2018-10-17T11:56:12.308Z,14.93
2018-10-17T11:58:45.101Z,13.10
2018-10-17T12:01:15.882Z,14.50
2018-10-17T12:03:47.347Z,14.13
2018-10-17T12:06:19.862Z,12.97
2018-10-17T12:08:50.157Z,12.33
2018-10-17T12:11:21.724Z,13.20
2018-10-17T12:13:52.910Z,12.33
2018-10-17T12:16:24.314Z,12.93
2018-10-17T12:18:58.634Z,14.33
2018-10-17T12:21:42.734Z,12.30
2018-10-17T12:27:26.187Z,12.40
2018-10-17T12:30:13.396Z,13.50
2018-10-17T12:32:50.838Z,12.40
2018-10-17T12:35:24.535Z,13.40
2018-10-17T12:37:55.869Z,13.90
2018-10-17T12:40:27.526Z,11.60
2018-10-17T12:42:59.656Z,13.23
2018-10-17T12:45:28.829Z,12.57
2018-10-17T12:47:59.921Z,11.57
2018-10-17T12:50:29.327Z,12.27
2018-10-17T12:53:02.132Z,13.10
2018-10-17T12:55:32.536Z,12.50
2018-10-17T12:58:02.356Z,12.83
2018-10-17T13:00:37.457Z,11.97
2018-10-17T13:03:07.536Z,13.63
2018-10-17T13:05:38.094Z,15.73
2018-10-17T13:08:09.799Z,15.40
2018-10-17T13:10:39.179Z,12.43
2018-10-17T13:13:09.187Z,14.83
2018-10-17T13:15:39.531Z,13.57
2018-10-17T13:18:11.767Z,12.60
2018-10-17T13:20:42.101Z,12.70
2018-10-17T13:23:13.575Z,13.77
2018-10-17T13:25:43.608Z,13.47
2018-10-17T13:28:15.568Z,13.80
2018-10-17T13:30:57.113Z,14.70
2018-10-17T13:33:43.803Z,12.80
2018-10-17T13:36:35.440Z,13.37
2018-10-17T13:39:08.466Z,13.13
2018-10-17T13:41:44.759Z,12.50
2018-10-17T13:44:23.454Z,12.87
2018-10-17T13:46:53.234Z,17.10
2018-10-17T13:49:23.945Z,15.13
2018-10-17T13:51:54.096Z,13.83
2018-10-17T13:54:24.551Z,12.90
2018-10-17T13:56:54.664Z,13.60
2018-10-17T13:59:27.209Z,15.50
2018-10-17T14:02:07.264Z,13.00
2018-10-17T14:04:40.344Z,14.27
2018-10-17T14:07:10.729Z,13.30
2018-10-17T14:09:41.026Z,11.73
2018-10-17T14:12:11.793Z,12.90
2018-10-17T14:14:42.801Z,11.63
2018-10-17T14:17:13.919Z,12.67
2018-10-17T14:19:45.007Z,13.33
2018-10-17T14:22:16.880Z,14.27
2018-10-17T14:24:47.126Z,13.67
2018-10-17T14:27:17.872Z,14.20
2018-10-17T14:29:48.194Z,13.53
2018-10-17T14:32:17.957Z,14.77
2018-10-17T14:34:47.715Z,13.40
2018-10-17T14:37:18.181Z,14.33
2018-10-17T14:39:53.520Z,13.70
2018-10-17T14:42:28.574Z,14.93
2018-10-17T14:44:58.410Z,16.00
2018-10-17T14:47:28.295Z,14.77
2018-10-17T14:49:59.742Z,14.43
2018-10-17T14:52:30.070Z,16.60
2018-10-17T14:55:01.553Z,15.20
2018-10-17T14:57:31.732Z,15.10
2018-10-17T15:00:03.655Z,15.13
2018-10-17T15:02:33.346Z,17.27
2018-10-17T15:05:06.475Z,17.43
2018-10-17T15:07:39.907Z,33.87
2018-10-17T15:10:10.686Z,21.07
2018-10-17T15:12:42.286Z,16.77
2018-10-17T15:15:13.492Z,15.60
2018-10-17T15:17:58.390Z,15.23
2018-10-17T15:20:40.413Z,14.97
2018-10-17T15:23:15.362Z,15.10
2018-10-17T15:25:49.773Z,14.33
2018-10-17T15:28:24.459Z,14.17
2018-10-17T15:30:55.682Z,15.37
2018-10-17T15:33:30.721Z,40.93
2018-10-17T15:36:02.303Z,25.73
2018-10-17T15:38:34.435Z,15.70
2018-10-17T15:41:06.917Z,13.63
2018-10-17T15:43:40.828Z,14.40
2018-10-17T15:46:11.211Z,17.30
2018-10-17T15:48:44.887Z,17.50
2018-10-17T15:51:18.273Z,16.37
2018-10-17T15:54:11.937Z,16.70
2018-10-17T15:56:43.125Z,15.90
2018-10-17T15:59:26.756Z,16.10
2018-10-17T16:02:05.226Z,16.27
2018-10-17T16:04:41.231Z,16.43
2018-10-17T16:10:03.577Z,21.00
2018-10-17T16:12:45.188Z,20.90
2018-10-17T16:15:20.015Z,19.13
2018-10-17T16:17:52.324Z,24.00
2018-10-17T16:20:28.091Z,19.77
2018-10-17T16:23:00.683Z,21.07
2018-10-17T16:25:32.685Z,20.57
2018-10-17T16:28:05.513Z,19.67
2018-10-17T16:30:41.905Z,19.87
2018-10-17T16:33:25.609Z,20.50
2018-10-17T16:35:58.461Z,18.20
2018-10-17T16:38:31.181Z,19.40
2018-10-17T16:44:12.609Z,19.00
2018-10-17T16:47:03.725Z,19.67
2018-10-17T16:50:25.311Z,70.90
2018-10-17T16:53:05.521Z,53.47
2018-10-17T16:55:46.585Z,58.87
2018-10-17T16:58:19.851Z,25.20
2018-10-17T17:00:50.185Z,346.37
2018-10-17T17:03:21.041Z,30.07
2018-10-17T17:06:47.681Z,22.37
2018-10-17T17:09:18.789Z,23.00
2018-10-17T17:12:03.351Z,24.40
2018-10-17T17:14:40.755Z,22.40
2018-10-17T17:17:12.696Z,26.43
2018-10-17T17:20:03.821Z,25.90
2018-10-17T17:22:46.154Z,36.40
2018-10-17T17:25:19.681Z,33.17
2018-10-17T17:27:50.800Z,34.47
2018-10-17T17:30:31.516Z,43.40
2018-10-17T17:33:04.976Z,36.10
2018-10-17T17:35:36.673Z,34.13
2018-10-17T17:38:07.706Z,29.20
2018-10-17T17:40:44.349Z,32.07
2018-10-17T17:43:24.090Z,31.90
2018-10-17T17:45:55.639Z,36.40
2018-10-17T17:48:31.269Z,38.40
2018-10-17T17:51:01.608Z,39.43
2018-10-17T17:53:49.155Z,35.17
2018-10-17T17:59:07.733Z,38.20
2018-10-17T18:01:44.583Z,36.03
2018-10-17T18:04:15.537Z,40.87
2018-10-17T18:06:53.299Z,38.27
2018-10-17T18:09:49.382Z,36.60
2018-10-17T18:12:42.445Z,43.33
2018-10-17T18:18:20.238Z,47.50
2018-10-17T18:20:54.271Z,41.17
2018-10-17T18:23:26.164Z,41.63
2018-10-17T18:25:57.629Z,43.63
2018-10-17T18:28:32.367Z,43.10
2018-10-17T18:31:12.778Z,46.87
2018-10-17T18:33:58.654Z,50.83
2018-10-17T18:36:33.204Z,43.80
2018-10-17T18:39:05.240Z,47.13
2018-10-17T18:42:08.256Z,46.40
2018-10-17T18:44:44.440Z,51.40
2018-10-17T18:47:28.087Z,49.53
2018-10-17T18:50:23.542Z,49.97
2018-10-17T18:53:21.386Z,51.90
2018-10-17T18:55:53.628Z,52.37
2018-10-17T18:58:30.879Z,51.73
2018-10-17T19:01:07.815Z,58.33
2018-10-17T19:04:06.536Z,59.97
2018-10-17T19:06:39.137Z,57.70
2018-10-17T19:09:17.046Z,55.10
2018-10-17T19:11:53.640Z,61.80
2018-10-17T19:14:31.646Z,58.87
2018-10-17T19:17:04.154Z,55.00
2018-10-17T19:19:46.388Z,57.83
2018-10-17T19:22:27.685Z,65.13
2018-10-17T19:25:01.769Z,58.13
2018-10-17T19:27:37.083Z,59.93
2018-10-17T19:30:08.730Z,55.50
2018-10-17T19:32:40.284Z,62.70
2018-10-17T19:35:13.339Z,65.83
2018-10-17T19:38:02.720Z,59.40
2018-10-17T19:40:35.321Z,57.60
2018-10-17T19:43:06.503Z,58.63
2018-10-17T19:48:37.454Z,59.73
2018-10-17T19:51:09.400Z,59.73
2018-10-17T19:53:40.033Z,55.63
2018-10-17T19:56:11.107Z,62.57
2018-10-17T19:58:44.015Z,61.28
2018-10-17T20:01:16.623Z,61.83
2018-10-17T20:03:49.575Z,65.50
2018-10-17T20:06:22.415Z,61.33
2018-10-17T20:09:07.338Z,60.20
2018-10-17T20:11:39.646Z,59.57
2018-10-17T20:14:14.246Z,58.57
2018-10-17T20:17:01.588Z,80.33
2018-10-17T20:19:33.345Z,66.70
2018-10-17T20:22:05.785Z,62.53
2018-10-17T20:24:42.645Z,61.07
2018-10-17T20:27:16.843Z,63.30
2018-10-17T20:29:50.427Z,67.90
2018-10-17T20:32:38.518Z,68.37
2018-10-17T20:35:10.550Z,61.40
2018-10-17T20:37:51.066Z,61.67
2018-10-17T20:40:28.426Z,68.73
2018-10-17T20:43:02.981Z,59.97
2018-10-17T20:45:45.660Z,59.60
2018-10-17T20:48:19.102Z,64.70
2018-10-17T20:51:00.456Z,59.67
2018-10-17T20:53:33.728Z,59.50
2018-10-17T20:56:07.654Z,68.13
2018-10-17T20:58:38.165Z,65.97
2018-10-17T21:01:09.744Z,65.07
2018-10-17T21:03:45.016Z,64.20
2018-10-17T21:06:19.834Z,139.87
2018-10-17T21:08:53.431Z,80.17
2018-10-17T21:11:27.311Z,75.80
2018-10-17T21:14:01.447Z,93.53
2018-10-17T21:16:33.722Z,72.10
2018-10-17T21:19:13.486Z,112.17
2018-10-17T21:21:53.366Z,65.70
2018-10-17T21:24:34.969Z,82.70
2018-10-17T21:27:08.526Z,65.27
2018-10-17T21:29:51.601Z,82.63
2018-10-17T21:32:24.778Z,74.07
2018-10-17T21:34:58.564Z,70.40
2018-10-17T21:37:27.946Z,80.07
2018-10-17T21:39:57.511Z,64.60
2018-10-17T21:42:30.270Z,64.00
2018-10-17T21:45:08.500Z,83.70
2018-10-17T21:47:49.183Z,69.97
2018-10-17T21:50:23.529Z,68.77
2018-10-17T21:53:05.588Z,69.80
2018-10-17T21:55:50.160Z,66.70
2018-10-17T21:58:33.094Z,72.63
2018-10-17T22:01:25.082Z,68.37
2018-10-17T22:03:55.012Z,65.40
2018-10-17T22:06:27.026Z,67.07
2018-10-17T22:08:59.356Z,65.07
2018-10-17T22:11:29.823Z,71.20
2018-10-17T22:14:02.071Z,67.40
2018-10-17T22:16:37.607Z,65.90
2018-10-17T22:19:07.671Z,66.63
2018-10-17T22:21:43.364Z,66.47
2018-10-17T22:24:26.558Z,65.97
2018-10-17T22:27:03.250Z,72.30
2018-10-17T22:29:33.643Z,65.67
2018-10-17T22:32:04.998Z,68.70
2018-10-17T22:34:37.014Z,67.03
2018-10-17T22:37:11.447Z,67.20
2018-10-17T22:39:49.167Z,69.97
2018-10-17T22:42:19.805Z,71.10
2018-10-17T22:44:52.048Z,76.17
2018-10-17T22:47:23.219Z,67.63
2018-10-17T22:49:54.388Z,71.83
2018-10-17T22:52:24.831Z,68.37
2018-10-17T22:54:54.634Z,64.27
2018-10-17T22:57:25.794Z,67.27
2018-10-17T22:59:59.182Z,62.40
2018-10-17T23:03:08.535Z,62.43
2018-10-17T23:05:40.476Z,62.30
2018-10-17T23:08:11.306Z,69.10
2018-10-17T23:24:40.839Z,62.10
2018-10-17T23:27:09.883Z,62.40
2018-10-17T23:29:39.869Z,64.17
2018-10-17T23:32:09.183Z,63.53
2018-10-17T23:34:40.230Z,63.67
2018-10-17T23:37:14.180Z,59.30
2018-10-17T23:39:46.968Z,64.67
2018-10-17T23:42:22.645Z,65.40
2018-10-17T23:44:51.892Z,67.00
2018-10-17T23:47:21.628Z,63.80
2018-10-17T23:49:51.381Z,63.93
2018-10-17T23:52:20.800Z,64.97
2018-10-17T23:54:51.283Z,62.60
2018-10-17T23:57:20.584Z,68.63
2018-10-17T23:59:49.972Z,71.67
